sensor_id;sensor_type;location;lat;lon;timestamp;pressure;altitude;pressure_sealevel;temperature;humidity
6393;BME280;3229;42.674;23.282;2023-06-10T00:01:25;94278.88;;;19.93;91.24
6393;BME280;3229;42.674;23.282;2023-06-10T00:03:53;94277.91;;;19.81;91.87
6393;BME280;3229;42.674;23.282;2023-06-10T00:06:19;94282.75;;;19.71;92.10
6393;BME280;3229;42.674;23.282;2023-06-10T00:08:49;94269.59;;;19.66;92.18
6393;BME280;3229;42.674;23.282;2023-06-10T00:11:16;94271.59;;;19.64;92.60
6393;BME280;3229;42.674;23.282;2023-06-10T00:13:44;94269.22;;;19.62;92.83
6393;BME280;3229;42.674;23.282;2023-06-10T00:16:11;94264.59;;;19.51;92.76
6393;BME280;3229;42.674;23.282;2023-06-10T00:18:38;94273.19;;;19.51;93.14
6393;BME280;3229;42.674;23.282;2023-06-10T00:21:05;94275.63;;;19.40;92.81
6393;BME280;3229;42.674;23.282;2023-06-10T00:23:32;94280.22;;;19.31;92.86
6393;BME280;3229;42.674;23.282;2023-06-10T00:26:03;94280.59;;;19.28;92.85
6393;BME280;3229;42.674;23.282;2023-06-10T00:28:30;94280.22;;;19.24;92.91
6393;BME280;3229;42.674;23.282;2023-06-10T00:30:58;94267.25;;;19.18;93.06
6393;BME280;3229;42.674;23.282;2023-06-10T00:33:25;94275.44;;;19.21;93.22
6393;BME280;3229;42.674;23.282;2023-06-10T00:35:52;94277.22;;;19.21;93.40
6393;BME280;3229;42.674;23.282;2023-06-10T00:38:19;94279.22;;;19.19;93.63
6393;BME280;3229;42.674;23.282;2023-06-10T00:40:46;94276.03;;;19.23;93.60
6393;BME280;3229;42.674;23.282;2023-06-10T00:43:12;94260.88;;;19.14;93.60
6393;BME280;3229;42.674;23.282;2023-06-10T00:45:39;94269.47;;;19.14;94.02
6393;BME280;3229;42.674;23.282;2023-06-10T00:48:07;94279.22;;;19.19;94.04
6393;BME280;3229;42.674;23.282;2023-06-10T00:50:35;94269.66;;;19.19;93.75
6393;BME280;3229;42.674;23.282;2023-06-10T00:53:05;94275.03;;;19.18;94.06
6393;BME280;3229;42.674;23.282;2023-06-10T00:55:32;94274.44;;;19.16;94.04
6393;BME280;3229;42.674;23.282;2023-06-10T00:57:59;94270.03;;;19.16;94.01
6393;BME280;3229;42.674;23.282;2023-06-10T01:00:26;94279.81;;;19.21;93.88
6393;BME280;3229;42.674;23.282;2023-06-10T01:02:53;94199.69;;;18.73;93.82
6393;BME280;3229;42.674;23.282;2023-06-10T01:05:23;94257.69;;;19.05;94.22
6393;BME280;3229;42.674;23.282;2023-06-10T01:07:55;94287.19;;;19.24;94.28
6393;BME280;3229;42.674;23.282;2023-06-10T01:10:28;94282.22;;;19.22;94.31
6393;BME280;3229;42.674;23.282;2023-06-10T01:12:59;94283.22;;;19.21;94.77
6393;BME280;3229;42.674;23.282;2023-06-10T01:15:28;94286.00;;;19.20;95.10
6393;BME280;3229;42.674;23.282;2023-06-10T01:17:57;94289.38;;;19.20;95.12
6393;BME280;3229;42.674;23.282;2023-06-10T01:20:26;94276.41;;;19.20;95.35
6393;BME280;3229;42.674;23.282;2023-06-10T01:22:55;94283.00;;;19.23;95.73
6393;BME280;3229;42.674;23.282;2023-06-10T01:25:23;94285.38;;;19.24;95.79
6393;BME280;3229;42.674;23.282;2023-06-10T01:27:55;94283.63;;;19.18;95.64
6393;BME280;3229;42.674;23.282;2023-06-10T01:30:32;94286.22;;;19.18;96.16
6393;BME280;3229;42.674;23.282;2023-06-10T01:33:04;94280.41;;;19.16;96.14
6393;BME280;3229;42.674;23.282;2023-06-10T01:35:33;94282.22;;;19.16;96.62
6393;BME280;3229;42.674;23.282;2023-06-10T01:38:03;94254.09;;;18.99;96.49
6393;BME280;3229;42.674;23.282;2023-06-10T01:40:31;94283.22;;;19.15;96.60
6393;BME280;3229;42.674;23.282;2023-06-10T01:42:58;94274.44;;;19.09;96.73
6393;BME280;3229;42.674;23.282;2023-06-10T01:45:25;94274.81;;;19.13;96.86
6393;BME280;3229;42.674;23.282;2023-06-10T01:47:52;94278.81;;;19.15;96.80
6393;BME280;3229;42.674;23.282;2023-06-10T01:50:19;94280.41;;;19.16;96.70
6393;BME280;3229;42.674;23.282;2023-06-10T01:52:46;94280.00;;;19.19;96.35
6393;BME280;3229;42.674;23.282;2023-06-10T01:55:14;94266.84;;;19.21;95.96
6393;BME280;3229;42.674;23.282;2023-06-10T01:57:40;94258.88;;;19.22;96.07
6393;BME280;3229;42.674;23.282;2023-06-10T02:00:08;94257.88;;;19.23;95.65
6393;BME280;3229;42.674;23.282;2023-06-10T02:02:35;94256.88;;;19.24;95.50
6393;BME280;3229;42.674;23.282;2023-06-10T02:05:02;94248.91;;;19.19;95.17
6393;BME280;3229;42.674;23.282;2023-06-10T02:07:29;94254.91;;;19.26;94.96
6393;BME280;3229;42.674;23.282;2023-06-10T02:09:56;94251.06;;;19.29;94.89
6393;BME280;3229;42.674;23.282;2023-06-10T02:12:24;94247.31;;;19.32;94.71
6393;BME280;3229;42.674;23.282;2023-06-10T02:14:51;94239.13;;;19.28;94.50
6393;BME280;3229;42.674;23.282;2023-06-10T02:17:17;94247.88;;;19.34;94.36
6393;BME280;3229;42.674;23.282;2023-06-10T02:19:44;94236.94;;;19.32;94.25
6393;BME280;3229;42.674;23.282;2023-06-10T02:22:19;94210.41;;;19.16;93.97
6393;BME280;3229;42.674;23.282;2023-06-10T02:24:45;94238.69;;;19.38;94.12
6393;BME280;3229;42.674;23.282;2023-06-10T02:27:12;94241.28;;;19.38;94.03
6393;BME280;3229;42.674;23.282;2023-06-10T02:29:41;94226.78;;;19.30;94.03
6393;BME280;3229;42.674;23.282;2023-06-10T02:32:09;94234.13;;;19.40;93.71
6393;BME280;3229;42.674;23.282;2023-06-10T02:34:36;94238.09;;;19.42;93.74
6393;BME280;3229;42.674;23.282;2023-06-10T02:37:03;94231.50;;;19.46;93.70
6393;BME280;3229;42.674;23.282;2023-06-10T02:39:30;94237.06;;;19.50;93.97
6393;BME280;3229;42.674;23.282;2023-06-10T02:41:57;94227.94;;;19.41;93.88
6393;BME280;3229;42.674;23.282;2023-06-10T02:44:23;94223.94;;;19.38;94.22
6393;BME280;3229;42.674;23.282;2023-06-10T02:46:51;94228.16;;;19.39;94.15
6393;BME280;3229;42.674;23.282;2023-06-10T02:49:18;94224.16;;;19.37;94.01
6393;BME280;3229;42.674;23.282;2023-06-10T02:51:45;94223.34;;;19.36;94.33
6393;BME280;3229;42.674;23.282;2023-06-10T02:54:12;94221.78;;;19.35;94.49
6393;BME280;3229;42.674;23.282;2023-06-10T02:56:39;94222.34;;;19.37;94.50
6393;BME280;3229;42.674;23.282;2023-06-10T02:59:07;94226.53;;;19.38;94.85
6393;BME280;3229;42.674;23.282;2023-06-10T03:01:33;94220.53;;;19.38;95.58
6393;BME280;3229;42.674;23.282;2023-06-10T03:04:04;94224.94;;;19.37;95.90
6393;BME280;3229;42.674;23.282;2023-06-10T03:06:31;94213.19;;;19.28;96.51
6393;BME280;3229;42.674;23.282;2023-06-10T03:08:59;94229.34;;;19.37;97.43
6393;BME280;3229;42.674;23.282;2023-06-10T03:11:26;94231.94;;;19.37;97.63
6393;BME280;3229;42.674;23.282;2023-06-10T03:13:53;94230.13;;;19.37;97.65
6393;BME280;3229;42.674;23.282;2023-06-10T03:16:20;94210.03;;;19.26;98.22
6393;BME280;3229;42.674;23.282;2023-06-10T03:18:49;94231.31;;;19.41;99.57
6393;BME280;3229;42.674;23.282;2023-06-10T03:21:17;94240.09;;;19.40;99.86
6393;BME280;3229;42.674;23.282;2023-06-10T03:23:44;94244.09;;;19.36;99.30
6393;BME280;3229;42.674;23.282;2023-06-10T03:26:11;94247.13;;;19.26;100.00
6393;BME280;3229;42.674;23.282;2023-06-10T03:28:39;94255.50;;;19.22;100.00
6393;BME280;3229;42.674;23.282;2023-06-10T03:31:06;94255.69;;;19.14;100.00
6393;BME280;3229;42.674;23.282;2023-06-10T03:33:33;94261.50;;;19.09;100.00
6393;BME280;3229;42.674;23.282;2023-06-10T03:36:01;94259.06;;;19.08;100.00
6393;BME280;3229;42.674;23.282;2023-06-10T03:38:29;94259.88;;;19.08;100.00
6393;BME280;3229;42.674;23.282;2023-06-10T03:40:56;94260.09;;;19.07;100.00
6393;BME280;3229;42.674;23.282;2023-06-10T03:43:22;94259.06;;;19.08;100.00
6393;BME280;3229;42.674;23.282;2023-06-10T03:45:49;94258.91;;;19.09;100.00
6393;BME280;3229;42.674;23.282;2023-06-10T03:48:16;94256.09;;;19.11;100.00
6393;BME280;3229;42.674;23.282;2023-06-10T03:50:43;94257.06;;;19.16;100.00
6393;BME280;3229;42.674;23.282;2023-06-10T03:53:10;94252.69;;;19.17;100.00
6393;BME280;3229;42.674;23.282;2023-06-10T03:55:38;94249.91;;;19.18;100.00
6393;BME280;3229;42.674;23.282;2023-06-10T03:58:05;94255.69;;;19.20;100.00
6393;BME280;3229;42.674;23.282;2023-06-10T04:00:32;94249.53;;;19.21;100.00
6393;BME280;3229;42.674;23.282;2023-06-10T04:03:06;94245.13;;;19.22;100.00
6393;BME280;3229;42.674;23.282;2023-06-10T04:05:34;94246.94;;;19.21;100.00
6393;BME280;3229;42.674;23.282;2023-06-10T04:08:01;94250.09;;;19.23;100.00
6393;BME280;3229;42.674;23.282;2023-06-10T04:10:28;94255.06;;;19.25;100.00
6393;BME280;3229;42.674;23.282;2023-06-10T04:12:56;94253.28;;;19.25;100.00
6393;BME280;3229;42.674;23.282;2023-06-10T04:15:23;94255.69;;;19.27;100.00
6393;BME280;3229;42.674;23.282;2023-06-10T04:17:51;94265.66;;;19.30;100.00
6393;BME280;3229;42.674;23.282;2023-06-10T04:20:18;94259.25;;;19.33;100.00
6393;BME280;3229;42.674;23.282;2023-06-10T04:22:45;94261.84;;;19.33;100.00
6393;BME280;3229;42.674;23.282;2023-06-10T04:25:12;94270.84;;;19.30;100.00
6393;BME280;3229;42.674;23.282;2023-06-10T04:27:39;94259.66;;;19.29;100.00
6393;BME280;3229;42.674;23.282;2023-06-10T04:30:08;94259.25;;;19.33;100.00
6393;BME280;3229;42.674;23.282;2023-06-10T04:32:34;94248.69;;;19.27;100.00
6393;BME280;3229;42.674;23.282;2023-06-10T04:35:01;94259.88;;;19.35;100.00
6393;BME280;3229;42.674;23.282;2023-06-10T04:37:28;94259.44;;;19.38;100.00
6393;BME280;3229;42.674;23.282;2023-06-10T04:39:55;94258.25;;;19.40;100.00
6393;BME280;3229;42.674;23.282;2023-06-10T04:42:22;94265.81;;;19.48;100.00
6393;BME280;3229;42.674;23.282;2023-06-10T04:44:49;94263.41;;;19.53;100.00
6393;BME280;3229;42.674;23.282;2023-06-10T04:47:17;94251.84;;;19.56;99.97
6393;BME280;3229;42.674;23.282;2023-06-10T04:49:44;94263.41;;;19.73;99.93
6393;BME280;3229;42.674;23.282;2023-06-10T04:52:11;94264.78;;;19.76;99.68
6393;BME280;3229;42.674;23.282;2023-06-10T04:54:39;94261.56;;;19.80;99.41
6393;BME280;3229;42.674;23.282;2023-06-10T04:57:06;94257.94;;;19.88;99.61
6393;BME280;3229;42.674;23.282;2023-06-10T04:59:33;94258.13;;;19.93;99.30
6393;BME280;3229;42.674;23.282;2023-06-10T05:02:03;94255.91;;;19.97;99.20
6393;BME280;3229;42.674;23.282;2023-06-10T05:04:31;94258.50;;;19.97;99.17
6393;BME280;3229;42.674;23.282;2023-06-10T05:06:58;94250.16;;;19.95;99.23
6393;BME280;3229;42.674;23.282;2023-06-10T05:09:25;94259.31;;;19.97;99.28
6393;BME280;3229;42.674;23.282;2023-06-10T05:11:52;94259.53;;;19.96;99.01
6393;BME280;3229;42.674;23.282;2023-06-10T05:14:19;94259.31;;;19.97;98.59
6393;BME280;3229;42.674;23.282;2023-06-10T05:16:47;94255.91;;;19.97;98.58
6393;BME280;3229;42.674;23.282;2023-06-10T05:19:14;94252.94;;;19.93;98.48
6393;BME280;3229;42.674;23.282;2023-06-10T05:21:43;94251.13;;;19.94;98.39
6393;BME280;3229;42.674;23.282;2023-06-10T05:24:10;94254.53;;;19.94;98.39
6393;BME280;3229;42.674;23.282;2023-06-10T05:26:37;94254.50;;;20.01;98.25
6393;BME280;3229;42.674;23.282;2023-06-10T05:29:04;94259.91;;;19.99;97.91
6393;BME280;3229;42.674;23.282;2023-06-10T05:31:31;94260.88;;;19.98;97.87
6393;BME280;3229;42.674;23.282;2023-06-10T05:33:58;94260.09;;;20.04;97.93
6393;BME280;3229;42.674;23.282;2023-06-10T05:36:24;94269.44;;;20.12;97.52
6393;BME280;3229;42.674;23.282;2023-06-10T05:38:53;94268.38;;;20.20;97.40
6393;BME280;3229;42.674;23.282;2023-06-10T05:41:20;94265.16;;;20.31;96.67
6393;BME280;3229;42.674;23.282;2023-06-10T05:43:47;94269.94;;;20.34;95.29
6393;BME280;3229;42.674;23.282;2023-06-10T05:46:14;94273.66;;;20.45;95.10
6393;BME280;3229;42.674;23.282;2023-06-10T05:48:41;94275.00;;;20.61;94.67
6393;BME280;3229;42.674;23.282;2023-06-10T05:51:08;94257.34;;;20.69;93.12
6393;BME280;3229;42.674;23.282;2023-06-10T05:53:35;94284.59;;;20.85;91.91
6393;BME280;3229;42.674;23.282;2023-06-10T05:56:05;94252.84;;;20.83;90.18
6393;BME280;3229;42.674;23.282;2023-06-10T05:58:32;94270.53;;;20.99;90.18
6393;BME280;3229;42.674;23.282;2023-06-10T06:00:58;94276.25;;;21.08;88.87
6393;BME280;3229;42.674;23.282;2023-06-10T06:03:25;94252.47;;;21.04;88.41
6393;BME280;3229;42.674;23.282;2023-06-10T06:05:53;94282.28;;;21.34;87.08
6393;BME280;3229;42.674;23.282;2023-06-10T06:08:20;94265.47;;;21.29;87.01
6393;BME280;3229;42.674;23.282;2023-06-10T06:10:47;94281.56;;;21.45;87.22
6393;BME280;3229;42.674;23.282;2023-06-10T06:15:42;94272.81;;;21.58;87.01
6393;BME280;3229;42.674;23.282;2023-06-10T06:18:09;94279.13;;;21.68;85.65
6393;BME280;3229;42.674;23.282;2023-06-10T06:20:35;94278.47;;;21.73;84.77
6393;BME280;3229;42.674;23.282;2023-06-10T06:23:02;94277.84;;;21.77;83.48
6393;BME280;3229;42.674;23.282;2023-06-10T06:25:29;94287.59;;;21.82;83.02
6393;BME280;3229;42.674;23.282;2023-06-10T06:27:56;94281.31;;;21.90;82.80
6393;BME280;3229;42.674;23.282;2023-06-10T06:30:24;94277.25;;;21.94;82.99
6393;BME280;3229;42.674;23.282;2023-06-10T06:32:51;94289.75;;;22.03;83.42
6393;BME280;3229;42.674;23.282;2023-06-10T06:35:18;94292.06;;;22.12;83.24
6393;BME280;3229;42.674;23.282;2023-06-10T06:37:45;94271.22;;;22.12;83.30
6393;BME280;3229;42.674;23.282;2023-06-10T06:40:12;94280.72;;;22.24;82.84
6393;BME280;3229;42.674;23.282;2023-06-10T06:42:39;94287.28;;;22.27;81.01
6393;BME280;3229;42.674;23.282;2023-06-10T06:45:07;94289.84;;;22.15;80.02
6393;BME280;3229;42.674;23.282;2023-06-10T06:47:35;94265.28;;;22.04;80.44
6393;BME280;3229;42.674;23.282;2023-06-10T06:50:02;94277.41;;;22.17;80.21
6393;BME280;3229;42.674;23.282;2023-06-10T06:52:29;94269.16;;;22.20;80.12
6393;BME280;3229;42.674;23.282;2023-06-10T06:54:55;94270.00;;;22.33;80.22
6393;BME280;3229;42.674;23.282;2023-06-10T06:57:22;94276.25;;;22.43;80.17
6393;BME280;3229;42.674;23.282;2023-06-10T06:59:49;94273.41;;;22.45;79.51
6393;BME280;3229;42.674;23.282;2023-06-10T07:02:16;94272.31;;;22.52;79.04
6393;BME280;3229;42.674;23.282;2023-06-10T07:04:45;94270.88;;;22.57;79.07
6393;BME280;3229;42.674;23.282;2023-06-10T07:07:14;94267.88;;;22.71;78.12
6393;BME280;3229;42.674;23.282;2023-06-10T07:09:41;94271.41;;;22.89;77.15
6393;BME280;3229;42.674;23.282;2023-06-10T07:12:08;94268.97;;;22.94;77.10
6393;BME280;3229;42.674;23.282;2023-06-10T07:14:35;94259.09;;;23.08;76.46
6393;BME280;3229;42.674;23.282;2023-06-10T07:17:02;94259.56;;;23.16;75.63
6393;BME280;3229;42.674;23.282;2023-06-10T07:19:29;94266.25;;;23.24;75.31
6393;BME280;3229;42.674;23.282;2023-06-10T07:21:57;94261.94;;;23.29;74.00
6393;BME280;3229;42.674;23.282;2023-06-10T07:24:24;94253.19;;;23.36;73.31
6393;BME280;3229;42.674;23.282;2023-06-10T07:26:51;94254.22;;;23.46;72.38
6393;BME280;3229;42.674;23.282;2023-06-10T07:29:18;94257.97;;;23.50;71.51
6393;BME280;3229;42.674;23.282;2023-06-10T07:31:44;94253.09;;;23.54;71.00
6393;BME280;3229;42.674;23.282;2023-06-10T07:34:11;94258.09;;;23.67;70.99
6393;BME280;3229;42.674;23.282;2023-06-10T07:36:38;94258.06;;;23.91;70.93
6393;BME280;3229;42.674;23.282;2023-06-10T07:39:06;94259.94;;;24.07;69.90
6393;BME280;3229;42.674;23.282;2023-06-10T07:41:33;94262.94;;;24.27;70.20
6393;BME280;3229;42.674;23.282;2023-06-10T07:44:00;94255.50;;;24.48;68.80
6393;BME280;3229;42.674;23.282;2023-06-10T07:46:27;94264.00;;;24.55;65.86
6393;BME280;3229;42.674;23.282;2023-06-10T07:48:54;94263.63;;;24.63;65.69
6393;BME280;3229;42.674;23.282;2023-06-10T07:51:22;94259.88;;;24.59;65.81
6393;BME280;3229;42.674;23.282;2023-06-10T07:53:48;94253.44;;;24.50;66.12
6393;BME280;3229;42.674;23.282;2023-06-10T07:56:17;94259.19;;;24.81;65.46
6393;BME280;3229;42.674;23.282;2023-06-10T07:58:44;94256.56;;;25.26;65.14
6393;BME280;3229;42.674;23.282;2023-06-10T08:01:10;94258.50;;;25.52;62.28
6393;BME280;3229;42.674;23.282;2023-06-10T08:03:37;94261.03;;;25.47;60.41
6393;BME280;3229;42.674;23.282;2023-06-10T08:06:04;94258.25;;;25.54;59.70
6393;BME280;3229;42.674;23.282;2023-06-10T08:08:32;94244.16;;;25.77;59.27
6393;BME280;3229;42.674;23.282;2023-06-10T08:11:00;94260.44;;;26.23;58.04
6393;BME280;3229;42.674;23.282;2023-06-10T08:13:28;94247.16;;;26.51;55.70
6393;BME280;3229;42.674;23.282;2023-06-10T08:15:55;94248.91;;;26.73;54.53
6393;BME280;3229;42.674;23.282;2023-06-10T08:18:22;94249.03;;;26.88;53.01
6393;BME280;3229;42.674;23.282;2023-06-10T08:20:48;94247.16;;;27.16;52.14
6393;BME280;3229;42.674;23.282;2023-06-10T08:23:15;94232.41;;;27.42;52.81
6393;BME280;3229;42.674;23.282;2023-06-10T08:25:42;94241.00;;;27.74;51.73
6393;BME280;3229;42.674;23.282;2023-06-10T08:28:09;94176.78;;;27.55;50.13
6393;BME280;3229;42.674;23.282;2023-06-10T08:30:37;94233.44;;;27.88;50.68
6393;BME280;3229;42.674;23.282;2023-06-10T08:33:04;94229.81;;;27.99;49.54
6393;BME280;3229;42.674;23.282;2023-06-10T08:35:30;94233.53;;;28.19;50.41
6393;BME280;3229;42.674;23.282;2023-06-10T08:37:57;94229.94;;;28.35;50.53
6393;BME280;3229;42.674;23.282;2023-06-10T08:40:24;94232.59;;;28.50;49.34
6393;BME280;3229;42.674;23.282;2023-06-10T08:43:00;94198.09;;;28.37;48.29
6393;BME280;3229;42.674;23.282;2023-06-10T08:45:30;94199.41;;;28.34;48.73
6393;BME280;3229;42.674;23.282;2023-06-10T08:47:59;94218.66;;;28.50;48.77
6393;BME280;3229;42.674;23.282;2023-06-10T08:50:28;94224.19;;;28.54;49.18
6393;BME280;3229;42.674;23.282;2023-06-10T08:52:57;94223.63;;;28.36;48.59
6393;BME280;3229;42.674;23.282;2023-06-10T08:55:29;94215.72;;;28.36;49.34
6393;BME280;3229;42.674;23.282;2023-06-10T08:57:59;94187.78;;;28.15;48.09
6393;BME280;3229;42.674;23.282;2023-06-10T09:00:26;94207.28;;;28.24;48.18
6393;BME280;3229;42.674;23.282;2023-06-10T09:02:54;94208.59;;;28.26;48.06
6393;BME280;3229;42.674;23.282;2023-06-10T09:05:23;94207.72;;;28.00;48.70
6393;BME280;3229;42.674;23.282;2023-06-10T09:07:52;94204.28;;;27.95;48.76
6393;BME280;3229;42.674;23.282;2023-06-10T09:10:19;94202.66;;;27.79;49.21
6393;BME280;3229;42.674;23.282;2023-06-10T09:12:46;94195.69;;;27.57;49.85
6393;BME280;3229;42.674;23.282;2023-06-10T09:15:13;94194.63;;;27.53;49.26
6393;BME280;3229;42.674;23.282;2023-06-10T09:17:42;94206.38;;;27.40;49.50
6393;BME280;3229;42.674;23.282;2023-06-10T09:20:10;94209.47;;;27.32;49.88
6393;BME280;3229;42.674;23.282;2023-06-10T09:22:40;94186.53;;;27.17;50.73
6393;BME280;3229;42.674;23.282;2023-06-10T09:25:08;94197.13;;;27.33;50.63
6393;BME280;3229;42.674;23.282;2023-06-10T09:27:44;94193.25;;;27.45;50.63
6393;BME280;3229;42.674;23.282;2023-06-10T09:30:23;94188.28;;;27.44;49.99
6393;BME280;3229;42.674;23.282;2023-06-10T09:32:52;94195.06;;;27.40;49.89
6393;BME280;3229;42.674;23.282;2023-06-10T09:35:21;94194.50;;;27.33;49.40
6393;BME280;3229;42.674;23.282;2023-06-10T09:37:51;94194.19;;;27.24;49.29
6393;BME280;3229;42.674;23.282;2023-06-10T09:40:18;94188.41;;;27.22;49.91
6393;BME280;3229;42.674;23.282;2023-06-10T09:42:45;94184.47;;;27.24;49.91
6393;BME280;3229;42.674;23.282;2023-06-10T09:45:14;94183.22;;;27.37;49.16
6393;BME280;3229;42.674;23.282;2023-06-10T09:47:41;94179.88;;;27.42;48.76
6393;BME280;3229;42.674;23.282;2023-06-10T09:50:09;94172.56;;;27.54;49.27
6393;BME280;3229;42.674;23.282;2023-06-10T09:52:37;94171.00;;;27.63;49.50
6393;BME280;3229;42.674;23.282;2023-06-10T09:55:08;94168.13;;;27.60;49.25
6393;BME280;3229;42.674;23.282;2023-06-10T09:57:35;94167.25;;;27.44;49.54
6393;BME280;3229;42.674;23.282;2023-06-10T10:00:05;94169.56;;;27.35;49.62
6393;BME280;3229;42.674;23.282;2023-06-10T10:02:44;94163.16;;;27.16;50.56
6393;BME280;3229;42.674;23.282;2023-06-10T10:05:12;94163.72;;;27.23;51.17
6393;BME280;3229;42.674;23.282;2023-06-10T10:07:39;94159.56;;;27.27;50.86
6393;BME280;3229;42.674;23.282;2023-06-10T10:10:08;94155.59;;;27.24;50.49
6393;BME280;3229;42.674;23.282;2023-06-10T10:12:35;94153.47;;;27.16;49.41
6393;BME280;3229;42.674;23.282;2023-06-10T10:15:03;94147.31;;;27.00;49.73
6393;BME280;3229;42.674;23.282;2023-06-10T10:17:34;94157.41;;;26.82;50.07
6393;BME280;3229;42.674;23.282;2023-06-10T10:20:03;94148.66;;;26.71;50.25
6393;BME280;3229;42.674;23.282;2023-06-10T10:22:36;94141.47;;;26.56;50.80
6393;BME280;3229;42.674;23.282;2023-06-10T10:25:09;94128.63;;;26.60;50.08
6393;BME280;3229;42.674;23.282;2023-06-10T10:27:42;94123.50;;;26.75;49.43
6393;BME280;3229;42.674;23.282;2023-06-10T10:30:11;94150.72;;;27.01;49.51
6393;BME280;3229;42.674;23.282;2023-06-10T10:32:40;94134.19;;;27.00;49.74
6393;BME280;3229;42.674;23.282;2023-06-10T10:35:14;94142.84;;;27.01;49.14
6393;BME280;3229;42.674;23.282;2023-06-10T10:37:43;94142.13;;;27.11;49.20
6393;BME280;3229;42.674;23.282;2023-06-10T10:40:12;94134.03;;;27.17;48.89
6393;BME280;3229;42.674;23.282;2023-06-10T10:42:40;94120.16;;;27.22;48.45
6393;BME280;3229;42.674;23.282;2023-06-10T10:45:09;94126.53;;;27.41;47.34
6393;BME280;3229;42.674;23.282;2023-06-10T10:47:36;94128.97;;;27.58;47.43
6393;BME280;3229;42.674;23.282;2023-06-10T10:50:13;94115.59;;;27.65;45.90
6393;BME280;3229;42.674;23.282;2023-06-10T10:52:51;94113.50;;;27.72;46.02
6393;BME280;3229;42.674;23.282;2023-06-10T10:55:20;94114.09;;;27.79;46.28
6393;BME280;3229;42.674;23.282;2023-06-10T10:57:54;94109.09;;;27.83;46.17
6393;BME280;3229;42.674;23.282;2023-06-10T11:00:31;94106.75;;;27.91;46.21
6393;BME280;3229;42.674;23.282;2023-06-10T11:03:00;94116.78;;;28.15;46.48
6393;BME280;3229;42.674;23.282;2023-06-10T11:05:35;94114.41;;;28.18;45.83
6393;BME280;3229;42.674;23.282;2023-06-10T11:08:03;94113.91;;;28.21;45.68
6393;BME280;3229;42.674;23.282;2023-06-10T11:10:32;94107.31;;;28.19;45.99
6393;BME280;3229;42.674;23.282;2023-06-10T11:12:59;94107.81;;;28.11;46.33
6393;BME280;3229;42.674;23.282;2023-06-10T11:15:27;94103.88;;;27.93;46.05
6393;BME280;3229;42.674;23.282;2023-06-10T11:18:15;94098.88;;;27.81;46.43
6393;BME280;3229;42.674;23.282;2023-06-10T11:20:45;94098.81;;;27.76;46.40
6393;BME280;3229;42.674;23.282;2023-06-10T11:23:38;94097.53;;;27.84;46.42
6393;BME280;3229;42.674;23.282;2023-06-10T11:26:31;94098.38;;;27.94;46.01
6393;BME280;3229;42.674;23.282;2023-06-10T11:29:04;94092.56;;;27.97;45.49
6393;BME280;3229;42.674;23.282;2023-06-10T11:31:41;94068.63;;;27.84;45.32
6393;BME280;3229;42.674;23.282;2023-06-10T11:34:08;94079.66;;;27.81;45.39
6393;BME280;3229;42.674;23.282;2023-06-10T11:36:38;94069.38;;;27.69;44.42
6393;BME280;3229;42.674;23.282;2023-06-10T11:39:08;94073.78;;;27.48;45.72
6393;BME280;3229;42.674;23.282;2023-06-10T11:41:38;94074.78;;;27.37;46.36
6393;BME280;3229;42.674;23.282;2023-06-10T11:44:08;94071.84;;;27.23;46.87
6393;BME280;3229;42.674;23.282;2023-06-10T11:46:35;94072.59;;;27.18;47.17
6393;BME280;3229;42.674;23.282;2023-06-10T11:49:02;94052.09;;;27.10;47.06
6393;BME280;3229;42.674;23.282;2023-06-10T11:51:33;94070.78;;;27.24;47.57
6393;BME280;3229;42.674;23.282;2023-06-10T11:54:00;94074.53;;;27.33;47.44
6393;BME280;3229;42.674;23.282;2023-06-10T11:56:28;94071.09;;;27.33;47.18
6393;BME280;3229;42.674;23.282;2023-06-10T11:58:58;94070.56;;;27.36;46.73
6393;BME280;3229;42.674;23.282;2023-06-10T12:01:29;94066.38;;;27.40;46.28
6393;BME280;3229;42.674;23.282;2023-06-10T12:03:58;94062.72;;;27.46;46.63
6393;BME280;3229;42.674;23.282;2023-06-10T12:06:25;94054.09;;;27.50;46.67
6393;BME280;3229;42.674;23.282;2023-06-10T12:08:53;94064.91;;;27.64;45.63
6393;BME280;3229;42.674;23.282;2023-06-10T12:11:20;94060.94;;;27.67;46.19
6393;BME280;3229;42.674;23.282;2023-06-10T12:13:48;94072.03;;;27.79;46.63
6393;BME280;3229;42.674;23.282;2023-06-10T12:16:17;94071.25;;;27.79;46.77
6393;BME280;3229;42.674;23.282;2023-06-10T12:18:44;94068.91;;;27.87;46.38
6393;BME280;3229;42.674;23.282;2023-06-10T12:21:18;94055.75;;;27.87;45.94
6393;BME280;3229;42.674;23.282;2023-06-10T12:24:03;94066.56;;;27.91;45.83
6393;BME280;3229;42.674;23.282;2023-06-10T12:26:38;94067.88;;;27.98;45.50
6393;BME280;3229;42.674;23.282;2023-06-10T12:29:18;94060.22;;;27.97;46.22
6393;BME280;3229;42.674;23.282;2023-06-10T12:32:00;94057.59;;;28.02;44.46
6393;BME280;3229;42.674;23.282;2023-06-10T12:34:35;94058.94;;;28.05;44.74
6393;BME280;3229;42.674;23.282;2023-06-10T12:37:04;94058.16;;;28.09;45.22
6393;BME280;3229;42.674;23.282;2023-06-10T12:39:31;94048.19;;;28.11;44.96
6393;BME280;3229;42.674;23.282;2023-06-10T12:41:59;94053.69;;;28.20;44.80
6393;BME280;3229;42.674;23.282;2023-06-10T12:44:32;94050.00;;;28.16;43.60
6393;BME280;3229;42.674;23.282;2023-06-10T12:47:07;94047.63;;;28.14;43.71
6393;BME280;3229;42.674;23.282;2023-06-10T12:49:34;94050.81;;;28.16;43.78
6393;BME280;3229;42.674;23.282;2023-06-10T12:52:01;94053.94;;;28.23;42.80
6393;BME280;3229;42.674;23.282;2023-06-10T12:54:28;94060.53;;;28.26;42.45
6393;BME280;3229;42.674;23.282;2023-06-10T12:56:55;94055.00;;;28.17;40.43
6393;BME280;3229;42.674;23.282;2023-06-10T12:59:22;94051.84;;;28.10;38.88
6393;BME280;3229;42.674;23.282;2023-06-10T13:01:52;94050.78;;;28.01;39.43
6393;BME280;3229;42.674;23.282;2023-06-10T13:04:21;94045.78;;;27.94;39.59
6393;BME280;3229;42.674;23.282;2023-06-10T13:06:48;94051.84;;;27.95;39.93
6393;BME280;3229;42.674;23.282;2023-06-10T13:09:16;94052.63;;;27.90;39.28
6393;BME280;3229;42.674;23.282;2023-06-10T13:11:42;94050.75;;;27.75;39.60
6393;BME280;3229;42.674;23.282;2023-06-10T13:14:10;94061.22;;;27.65;40.58
6393;BME280;3229;42.674;23.282;2023-06-10T13:16:37;93994.13;;;27.17;40.50
6393;BME280;3229;42.674;23.282;2023-06-10T13:19:05;94067.72;;;27.47;41.48